sensor_id;sensor_type;location;lat;lon;timestamp;temperature;humidity
18339;DHT22;9295;44.484;11.240;2023-04-25T00:01:04;15.80;99.90
18339;DHT22;9295;44.484;11.240;2023-04-25T00:03:32;15.80;99.90
18339;DHT22;9295;44.484;11.240;2023-04-25T00:06:02;15.80;99.90
18339;DHT22;9295;44.484;11.240;2023-04-25T00:08:32;15.70;99.90
18339;DHT22;9295;44.484;11.240;2023-04-25T00:11:01;15.70;99.90
18339;DHT22;9295;44.484;11.240;2023-04-25T00:13:29;15.70;99.90
18339;DHT22;9295;44.484;11.240;2023-04-25T00:15:58;15.60;99.90
18339;DHT22;9295;44.484;11.240;2023-04-25T00:18:27;15.50;99.90
18339;DHT22;9295;44.484;11.240;2023-04-25T00:20:56;15.50;99.90
18339;DHT22;9295;44.484;11.240;2023-04-25T00:23:24;15.50;99.90
18339;DHT22;9295;44.484;11.240;2023-04-25T00:25:54;15.40;99.90
18339;DHT22;9295;44.484;11.240;2023-04-25T00:28:23;15.40;99.90
18339;DHT22;9295;44.484;11.240;2023-04-25T00:30:51;15.40;99.90
18339;DHT22;9295;44.484;11.240;2023-04-25T00:33:20;15.30;99.90
18339;DHT22;9295;44.484;11.240;2023-04-25T00:35:48;15.20;99.90
18339;DHT22;9295;44.484;11.240;2023-04-25T00:38:16;15.20;99.90
18339;DHT22;9295;44.484;11.240;2023-04-25T00:40:45;15.10;99.90
18339;DHT22;9295;44.484;11.240;2023-04-25T00:43:14;15.10;99.90
18339;DHT22;9295;44.484;11.240;2023-04-25T00:45:43;15.10;99.90
18339;DHT22;9295;44.484;11.240;2023-04-25T00:48:12;15.00;99.90
18339;DHT22;9295;44.484;11.240;2023-04-25T00:50:52;15.00;99.90
18339;DHT22;9295;44.484;11.240;2023-04-25T00:53:21;15.00;99.90
18339;DHT22;9295;44.484;11.240;2023-04-25T00:55:50;14.90;99.90
18339;DHT22;9295;44.484;11.240;2023-04-25T00:58:21;14.90;99.90
18339;DHT22;9295;44.484;11.240;2023-04-25T01:00:51;14.90;99.90
18339;DHT22;9295;44.484;11.240;2023-04-25T01:03:20;14.90;99.90
18339;DHT22;9295;44.484;11.240;2023-04-25T01:05:50;14.90;99.90
18339;DHT22;9295;44.484;11.240;2023-04-25T01:08:20;14.80;99.90
18339;DHT22;9295;44.484;11.240;2023-04-25T01:10:49;14.80;99.90
18339;DHT22;9295;44.484;11.240;2023-04-25T01:13:19;14.70;99.90
18339;DHT22;9295;44.484;11.240;2023-04-25T01:15:48;14.60;99.90
18339;DHT22;9295;44.484;11.240;2023-04-25T01:18:16;14.50;99.90
18339;DHT22;9295;44.484;11.240;2023-04-25T01:20:46;14.50;99.90
18339;DHT22;9295;44.484;11.240;2023-04-25T01:23:15;14.40;99.90
18339;DHT22;9295;44.484;11.240;2023-04-25T01:25:44;14.30;99.90
18339;DHT22;9295;44.484;11.240;2023-04-25T01:28:13;14.20;99.90
18339;DHT22;9295;44.484;11.240;2023-04-25T01:30:43;14.20;99.90
18339;DHT22;9295;44.484;11.240;2023-04-25T01:33:14;14.10;99.90
18339;DHT22;9295;44.484;11.240;2023-04-25T01:35:43;14.00;99.90
18339;DHT22;9295;44.484;11.240;2023-04-25T01:38:12;14.00;99.90
18339;DHT22;9295;44.484;11.240;2023-04-25T01:40:45;13.90;99.90
18339;DHT22;9295;44.484;11.240;2023-04-25T01:43:14;13.80;99.90
18339;DHT22;9295;44.484;11.240;2023-04-25T01:45:43;13.70;99.90
18339;DHT22;9295;44.484;11.240;2023-04-25T01:48:13;13.70;99.90
18339;DHT22;9295;44.484;11.240;2023-04-25T01:50:44;13.60;99.90
18339;DHT22;9295;44.484;11.240;2023-04-25T01:53:13;13.60;99.90
18339;DHT22;9295;44.484;11.240;2023-04-25T01:55:45;13.60;99.90
18339;DHT22;9295;44.484;11.240;2023-04-25T01:58:17;13.50;99.90
18339;DHT22;9295;44.484;11.240;2023-04-25T02:01:00;13.50;99.90
18339;DHT22;9295;44.484;11.240;2023-04-25T02:03:35;13.40;99.90
18339;DHT22;9295;44.484;11.240;2023-04-25T02:06:09;13.40;99.90
18339;DHT22;9295;44.484;11.240;2023-04-25T02:08:42;13.40;99.90
18339;DHT22;9295;44.484;11.240;2023-04-25T02:11:13;13.40;99.90
18339;DHT22;9295;44.484;11.240;2023-04-25T02:13:49;13.30;99.90
18339;DHT22;9295;44.484;11.240;2023-04-25T02:16:44;13.20;99.90
18339;DHT22;9295;44.484;11.240;2023-04-25T02:19:13;13.20;99.90
18339;DHT22;9295;44.484;11.240;2023-04-25T02:21:41;13.20;99.90
18339;DHT22;9295;44.484;11.240;2023-04-25T02:24:10;13.20;99.90
18339;DHT22;9295;44.484;11.240;2023-04-25T02:26:40;13.10;99.90
18339;DHT22;9295;44.484;11.240;2023-04-25T02:29:09;13.10;99.90
18339;DHT22;9295;44.484;11.240;2023-04-25T02:31:37;13.00;99.90
18339;DHT22;9295;44.484;11.240;2023-04-25T02:34:06;13.00;99.90
18339;DHT22;9295;44.484;11.240;2023-04-25T02:36:37;12.90;99.90
18339;DHT22;9295;44.484;11.240;2023-04-25T02:39:05;12.90;99.90
18339;DHT22;9295;44.484;11.240;2023-04-25T02:41:34;12.90;99.90
18339;DHT22;9295;44.484;11.240;2023-04-25T02:44:03;12.90;99.90
18339;DHT22;9295;44.484;11.240;2023-04-25T02:46:32;12.80;99.90
18339;DHT22;9295;44.484;11.240;2023-04-25T02:49:06;12.80;99.90
18339;DHT22;9295;44.484;11.240;2023-04-25T02:51:35;12.70;99.90
18339;DHT22;9295;44.484;11.240;2023-04-25T02:54:04;12.60;99.90
18339;DHT22;9295;44.484;11.240;2023-04-25T02:56:38;12.50;99.90
18339;DHT22;9295;44.484;11.240;2023-04-25T02:59:13;12.40;99.90
18339;DHT22;9295;44.484;11.240;2023-04-25T03:01:41;12.30;99.90
18339;DHT22;9295;44.484;11.240;2023-04-25T03:04:10;12.30;99.90
18339;DHT22;9295;44.484;11.240;2023-04-25T03:06:38;12.30;99.90
18339;DHT22;9295;44.484;11.240;2023-04-25T03:09:06;12.20;99.90
18339;DHT22;9295;44.484;11.240;2023-04-25T03:11:36;12.20;99.90
18339;DHT22;9295;44.484;11.240;2023-04-25T03:14:05;12.20;99.90
18339;DHT22;9295;44.484;11.240;2023-04-25T03:16:35;12.10;99.90
18339;DHT22;9295;44.484;11.240;2023-04-25T03:19:04;12.10;99.90
18339;DHT22;9295;44.484;11.240;2023-04-25T03:21:34;12.10;99.90
18339;DHT22;9295;44.484;11.240;2023-04-25T03:24:04;12.00;99.90
18339;DHT22;9295;44.484;11.240;2023-04-25T03:26:32;12.00;99.90
18339;DHT22;9295;44.484;11.240;2023-04-25T03:29:01;11.90;99.90
18339;DHT22;9295;44.484;11.240;2023-04-25T03:31:29;11.90;99.90
18339;DHT22;9295;44.484;11.240;2023-04-25T03:34:00;12.00;99.90
18339;DHT22;9295;44.484;11.240;2023-04-25T03:36:28;12.00;99.90
18339;DHT22;9295;44.484;11.240;2023-04-25T03:38:57;11.90;99.90
18339;DHT22;9295;44.484;11.240;2023-04-25T03:41:27;11.90;99.90
18339;DHT22;9295;44.484;11.240;2023-04-25T03:44:01;11.80;99.90
18339;DHT22;9295;44.484;11.240;2023-04-25T03:46:30;11.80;99.90
18339;DHT22;9295;44.484;11.240;2023-04-25T03:49:00;11.80;99.90
18339;DHT22;9295;44.484;11.240;2023-04-25T03:51:47;11.80;99.90
18339;DHT22;9295;44.484;11.240;2023-04-25T03:54:16;11.70;99.90
18339;DHT22;9295;44.484;11.240;2023-04-25T03:56:55;11.70;99.90
18339;DHT22;9295;44.484;11.240;2023-04-25T03:59:27;11.70;99.90
18339;DHT22;9295;44.484;11.240;2023-04-25T04:01:56;11.70;99.90
18339;DHT22;9295;44.484;11.240;2023-04-25T04:04:26;11.70;99.90
18339;DHT22;9295;44.484;11.240;2023-04-25T04:06:55;11.60;99.90
18339;DHT22;9295;44.484;11.240;2023-04-25T04:09:26;11.60;99.90
18339;DHT22;9295;44.484;11.240;2023-04-25T04:11:57;11.50;99.90
18339;DHT22;9295;44.484;11.240;2023-04-25T04:14:26;11.40;99.90
18339;DHT22;9295;44.484;11.240;2023-04-25T04:16:54;11.40;99.90
18339;DHT22;9295;44.484;11.240;2023-04-25T04:19:23;11.50;99.90
18339;DHT22;9295;44.484;11.240;2023-04-25T04:22:14;11.50;99.90
18339;DHT22;9295;44.484;11.240;2023-04-25T04:24:43;11.50;99.90
18339;DHT22;9295;44.484;11.240;2023-04-25T04:27:17;11.50;99.90
18339;DHT22;9295;44.484;11.240;2023-04-25T04:29:52;11.50;99.90
18339;DHT22;9295;44.484;11.240;2023-04-25T04:32:31;11.50;99.90
18339;DHT22;9295;44.484;11.240;2023-04-25T04:35:03;11.50;99.90
18339;DHT22;9295;44.484;11.240;2023-04-25T04:37:35;11.50;99.90
18339;DHT22;9295;44.484;11.240;2023-04-25T04:40:06;11.60;99.90
18339;DHT22;9295;44.484;11.240;2023-04-25T04:42:45;11.70;99.90
18339;DHT22;9295;44.484;11.240;2023-04-25T04:45:21;11.80;99.90
18339;DHT22;9295;44.484;11.240;2023-04-25T04:48:08;11.90;99.90
18339;DHT22;9295;44.484;11.240;2023-04-25T04:50:55;12.00;99.90
18339;DHT22;9295;44.484;11.240;2023-04-25T04:53:43;12.00;99.90
18339;DHT22;9295;44.484;11.240;2023-04-25T04:56:29;12.10;99.90
18339;DHT22;9295;44.484;11.240;2023-04-25T04:59:13;12.20;99.90
18339;DHT22;9295;44.484;11.240;2023-04-25T05:02:00;12.30;99.90
18339;DHT22;9295;44.484;11.240;2023-04-25T05:04:48;12.40;99.90
18339;DHT22;9295;44.484;11.240;2023-04-25T05:07:36;12.60;99.90
18339;DHT22;9295;44.484;11.240;2023-04-25T05:10:11;12.80;99.90
18339;DHT22;9295;44.484;11.240;2023-04-25T05:12:58;13.00;99.90
18339;DHT22;9295;44.484;11.240;2023-04-25T05:15:41;13.10;99.90
18339;DHT22;9295;44.484;11.240;2023-04-25T05:18:30;13.10;99.90
18339;DHT22;9295;44.484;11.240;2023-04-25T05:21:09;13.00;99.90
18339;DHT22;9295;44.484;11.240;2023-04-25T05:24:06;12.90;99.90
18339;DHT22;9295;44.484;11.240;2023-04-25T05:27:05;12.90;99.90
18339;DHT22;9295;44.484;11.240;2023-04-25T05:29:52;12.80;99.90
18339;DHT22;9295;44.484;11.240;2023-04-25T05:32:27;12.80;99.90
18339;DHT22;9295;44.484;11.240;2023-04-25T05:34:56;12.80;99.90
18339;DHT22;9295;44.484;11.240;2023-04-25T05:37:28;12.90;99.90
18339;DHT22;9295;44.484;11.240;2023-04-25T05:40:07;13.00;99.90
18339;DHT22;9295;44.484;11.240;2023-04-25T05:43:12;13.00;99.90
18339;DHT22;9295;44.484;11.240;2023-04-25T05:46:06;13.00;99.90
18339;DHT22;9295;44.484;11.240;2023-04-25T05:49:01;13.10;99.90
18339;DHT22;9295;44.484;11.240;2023-04-25T05:51:40;13.10;99.90
18339;DHT22;9295;44.484;11.240;2023-04-25T05:54:29;13.10;99.90
18339;DHT22;9295;44.484;11.240;2023-04-25T05:56:59;13.20;99.90
18339;DHT22;9295;44.484;11.240;2023-04-25T05:59:29;13.20;99.90
18339;DHT22;9295;44.484;11.240;2023-04-25T06:01:58;13.30;99.90
18339;DHT22;9295;44.484;11.240;2023-04-25T06:04:29;13.40;99.90
18339;DHT22;9295;44.484;11.240;2023-04-25T06:07:00;13.60;99.90
18339;DHT22;9295;44.484;11.240;2023-04-25T06:09:28;13.70;99.90
18339;DHT22;9295;44.484;11.240;2023-04-25T06:11:57;13.80;99.90
18339;DHT22;9295;44.484;11.240;2023-04-25T06:14:25;13.90;99.90
18339;DHT22;9295;44.484;11.240;2023-04-25T06:16:57;13.90;99.90
18339;DHT22;9295;44.484;11.240;2023-04-25T06:19:26;14.00;99.90
18339;DHT22;9295;44.484;11.240;2023-04-25T06:21:54;14.10;99.90
18339;DHT22;9295;44.484;11.240;2023-04-25T06:24:23;14.20;99.90
18339;DHT22;9295;44.484;11.240;2023-04-25T06:26:51;14.40;99.90
18339;DHT22;9295;44.484;11.240;2023-04-25T06:29:20;14.40;99.90
18339;DHT22;9295;44.484;11.240;2023-04-25T06:31:49;14.30;99.90
18339;DHT22;9295;44.484;11.240;2023-04-25T06:34:19;14.30;99.90
18339;DHT22;9295;44.484;11.240;2023-04-25T06:36:48;14.30;99.90
18339;DHT22;9295;44.484;11.240;2023-04-25T06:39:16;14.30;99.90
18339;DHT22;9295;44.484;11.240;2023-04-25T06:41:46;14.40;99.90
18339;DHT22;9295;44.484;11.240;2023-04-25T06:44:34;14.50;99.90
18339;DHT22;9295;44.484;11.240;2023-04-25T06:47:04;14.60;99.90
18339;DHT22;9295;44.484;11.240;2023-04-25T06:49:34;14.70;99.90
18339;DHT22;9295;44.484;11.240;2023-04-25T06:52:02;14.80;99.90
18339;DHT22;9295;44.484;11.240;2023-04-25T06:54:31;15.00;99.90
18339;DHT22;9295;44.484;11.240;2023-04-25T06:57:05;15.30;99.90
18339;DHT22;9295;44.484;11.240;2023-04-25T06:59:34;15.50;99.90
18339;DHT22;9295;44.484;11.240;2023-04-25T07:02:03;15.80;99.90
18339;DHT22;9295;44.484;11.240;2023-04-25T07:04:34;16.20;99.90
18339;DHT22;9295;44.484;11.240;2023-04-25T07:07:03;17.00;99.90
18339;DHT22;9295;44.484;11.240;2023-04-25T07:09:39;17.90;99.90
18339;DHT22;9295;44.484;11.240;2023-04-25T07:12:07;19.00;99.90
18339;DHT22;9295;44.484;11.240;2023-04-25T07:14:35;19.30;99.90
18339;DHT22;9295;44.484;11.240;2023-04-25T07:17:05;19.30;99.90
18339;DHT22;9295;44.484;11.240;2023-04-25T07:19:36;18.90;99.90
18339;DHT22;9295;44.484;11.240;2023-04-25T07:22:07;18.90;99.90
18339;DHT22;9295;44.484;11.240;2023-04-25T07:24:39;19.20;99.90
18339;DHT22;9295;44.484;11.240;2023-04-25T07:27:10;19.00;99.90
18339;DHT22;9295;44.484;11.240;2023-04-25T07:30:05;19.30;99.90
18339;DHT22;9295;44.484;11.240;2023-04-25T07:32:35;19.40;99.90
18339;DHT22;9295;44.484;11.240;2023-04-25T07:35:06;18.90;99.90
18339;DHT22;9295;44.484;11.240;2023-04-25T07:37:36;18.20;99.90
18339;DHT22;9295;44.484;11.240;2023-04-25T07:40:14;17.60;99.90
18339;DHT22;9295;44.484;11.240;2023-04-25T07:42:47;17.00;99.90
18339;DHT22;9295;44.484;11.240;2023-04-25T07:45:22;16.60;99.90
18339;DHT22;9295;44.484;11.240;2023-04-25T07:47:51;16.20;99.90
18339;DHT22;9295;44.484;11.240;2023-04-25T07:50:21;16.10;99.90
18339;DHT22;9295;44.484;11.240;2023-04-25T07:52:49;16.00;99.90
18339;DHT22;9295;44.484;11.240;2023-04-25T07:55:25;15.90;99.90
18339;DHT22;9295;44.484;11.240;2023-04-25T07:58:05;15.90;99.90
18339;DHT22;9295;44.484;11.240;2023-04-25T08:00:35;16.00;99.90
18339;DHT22;9295;44.484;11.240;2023-04-25T08:03:35;16.30;99.90
18339;DHT22;9295;44.484;11.240;2023-04-25T08:06:10;16.50;99.90
18339;DHT22;9295;44.484;11.240;2023-04-25T08:08:50;16.30;99.90
18339;DHT22;9295;44.484;11.240;2023-04-25T08:11:21;16.30;99.90
18339;DHT22;9295;44.484;11.240;2023-04-25T08:13:50;16.20;99.90
18339;DHT22;9295;44.484;11.240;2023-04-25T08:16:18;16.10;99.90
18339;DHT22;9295;44.484;11.240;2023-04-25T08:18:47;16.00;99.90
18339;DHT22;9295;44.484;11.240;2023-04-25T08:21:17;15.90;99.90
18339;DHT22;9295;44.484;11.240;2023-04-25T08:23:46;15.80;99.90
18339;DHT22;9295;44.484;11.240;2023-04-25T08:26:23;15.80;99.90
18339;DHT22;9295;44.484;11.240;2023-04-25T08:28:52;15.60;99.90
18339;DHT22;9295;44.484;11.240;2023-04-25T08:31:21;15.50;99.90
18339;DHT22;9295;44.484;11.240;2023-04-25T08:33:56;15.40;99.90
18339;DHT22;9295;44.484;11.240;2023-04-25T08:36:46;15.30;99.90
18339;DHT22;9295;44.484;11.240;2023-04-25T08:39:23;15.10;99.90
18339;DHT22;9295;44.484;11.240;2023-04-25T08:42:15;15.00;99.90
18339;DHT22;9295;44.484;11.240;2023-04-25T08:44:44;14.90;99.90
18339;DHT22;9295;44.484;11.240;2023-04-25T08:47:13;14.80;99.90
18339;DHT22;9295;44.484;11.240;2023-04-25T08:49:47;14.80;99.90
18339;DHT22;9295;44.484;11.240;2023-04-25T08:52:22;14.80;99.90
18339;DHT22;9295;44.484;11.240;2023-04-25T08:54:53;14.90;99.90
18339;DHT22;9295;44.484;11.240;2023-04-25T08:57:22;14.90;99.90
18339;DHT22;9295;44.484;11.240;2023-04-25T08:59:52;15.00;99.90
18339;DHT22;9295;44.484;11.240;2023-04-25T09:02:22;14.60;99.90
18339;DHT22;9295;44.484;11.240;2023-04-25T09:04:53;14.50;99.90
18339;DHT22;9295;44.484;11.240;2023-04-25T09:07:24;14.60;99.90
18339;DHT22;9295;44.484;11.240;2023-04-25T09:09:54;14.60;99.90
18339;DHT22;9295;44.484;11.240;2023-04-25T09:12:22;14.60;99.90
18339;DHT22;9295;44.484;11.240;2023-04-25T09:15:06;14.70;99.90
18339;DHT22;9295;44.484;11.240;2023-04-25T09:17:55;14.60;99.90
18339;DHT22;9295;44.484;11.240;2023-04-25T09:20:28;14.40;99.90
18339;DHT22;9295;44.484;11.240;2023-04-25T09:23:03;14.20;99.90
18339;DHT22;9295;44.484;11.240;2023-04-25T09:25:34;14.10;99.90
18339;DHT22;9295;44.484;11.240;2023-04-25T09:28:07;14.00;99.90
18339;DHT22;9295;44.484;11.240;2023-04-25T09:30:36;13.90;99.90
18339;DHT22;9295;44.484;11.240;2023-04-25T09:33:10;14.00;99.90
18339;DHT22;9295;44.484;11.240;2023-04-25T09:35:44;14.00;99.90
18339;DHT22;9295;44.484;11.240;2023-04-25T09:38:23;14.00;99.90
18339;DHT22;9295;44.484;11.240;2023-04-25T09:40:57;14.10;99.90
18339;DHT22;9295;44.484;11.240;2023-04-25T09:43:39;14.30;99.90
18339;DHT22;9295;44.484;11.240;2023-04-25T09:46:09;14.30;99.90
18339;DHT22;9295;44.484;11.240;2023-04-25T09:48:48;14.20;99.90
18339;DHT22;9295;44.484;11.240;2023-04-25T09:51:26;14.20;99.90
18339;DHT22;9295;44.484;11.240;2023-04-25T09:53:57;14.30;99.90
18339;DHT22;9295;44.484;11.240;2023-04-25T09:56:36;14.20;99.90
18339;DHT22;9295;44.484;11.240;2023-04-25T09:59:07;14.30;99.90
18339;DHT22;9295;44.484;11.240;2023-04-25T10:01:39;14.20;99.90
18339;DHT22;9295;44.484;11.240;2023-04-25T10:04:24;14.20;99.90
18339;DHT22;9295;44.484;11.240;2023-04-25T10:07:24;14.30;99.90
18339;DHT22;9295;44.484;11.240;2023-04-25T10:09:59;14.40;99.90
18339;DHT22;9295;44.484;11.240;2023-04-25T10:12:29;14.60;99.90
18339;DHT22;9295;44.484;11.240;2023-04-25T10:14:59;14.70;99.90
18339;DHT22;9295;44.484;11.240;2023-04-25T10:17:27;14.80;99.90
18339;DHT22;9295;44.484;11.240;2023-04-25T10:19:56;14.90;99.90
18339;DHT22;9295;44.484;11.240;2023-04-25T10:22:29;14.90;99.90
18339;DHT22;9295;44.484;11.240;2023-04-25T10:25:00;14.90;99.90
18339;DHT22;9295;44.484;11.240;2023-04-25T10:27:31;15.00;99.90
18339;DHT22;9295;44.484;11.240;2023-04-25T10:30:03;15.10;99.90
18339;DHT22;9295;44.484;11.240;2023-04-25T10:32:33;15.40;99.90
18339;DHT22;9295;44.484;11.240;2023-04-25T10:35:12;15.90;99.90
18339;DHT22;9295;44.484;11.240;2023-04-25T10:38:08;16.00;99.90
18339;DHT22;9295;44.484;11.240;2023-04-25T10:40:38;15.90;99.90
18339;DHT22;9295;44.484;11.240;2023-04-25T10:43:38;16.20;99.90
18339;DHT22;9295;44.484;11.240;2023-04-25T10:46:18;16.20;99.90
18339;DHT22;9295;44.484;11.240;2023-04-25T10:48:48;16.40;99.90
18339;DHT22;9295;44.484;11.240;2023-04-25T10:51:22;16.70;99.90
18339;DHT22;9295;44.484;11.240;2023-04-25T10:53:57;16.90;99.90
18339;DHT22;9295;44.484;11.240;2023-04-25T10:56:29;16.90;99.90
18339;DHT22;9295;44.484;11.240;2023-04-25T10:59:09;17.30;99.90
18339;DHT22;9295;44.484;11.240;2023-04-25T11:01:40;17.40;99.90
18339;DHT22;9295;44.484;11.240;2023-04-25T11:04:21;17.30;99.90
18339;DHT22;9295;44.484;11.240;2023-04-25T11:06:59;17.60;99.90
18339;DHT22;9295;44.484;11.240;2023-04-25T11:09:33;17.80;99.90
18339;DHT22;9295;44.484;11.240;2023-04-25T11:12:03;17.90;99.90
18339;DHT22;9295;44.484;11.240;2023-04-25T11:14:33;18.10;99.90
18339;DHT22;9295;44.484;11.240;2023-04-25T11:17:01;17.50;99.90
18339;DHT22;9295;44.484;11.240;2023-04-25T11:19:30;17.10;99.90
18339;DHT22;9295;44.484;11.240;2023-04-25T11:21:59;16.60;99.90
18339;DHT22;9295;44.484;11.240;2023-04-25T11:24:28;16.80;99.90
18339;DHT22;9295;44.484;11.240;2023-04-25T11:26:58;17.10;99.90
18339;DHT22;9295;44.484;11.240;2023-04-25T11:29:28;17.40;99.90
18339;DHT22;9295;44.484;11.240;2023-04-25T11:31:57;17.30;99.90
18339;DHT22;9295;44.484;11.240;2023-04-25T11:34:26;17.30;99.90
18339;DHT22;9295;44.484;11.240;2023-04-25T11:36:58;17.40;99.90
18339;DHT22;9295;44.484;11.240;2023-04-25T11:39:27;17.20;99.90
18339;DHT22;9295;44.484;11.240;2023-04-25T11:41:56;16.90;99.90
18339;DHT22;9295;44.484;11.240;2023-04-25T11:44:28;16.90;99.90
18339;DHT22;9295;44.484;11.240;2023-04-25T11:46:58;17.10;99.90
18339;DHT22;9295;44.484;11.240;2023-04-25T11:49:30;17.20;99.90
18339;DHT22;9295;44.484;11.240;2023-04-25T11:51:59;17.20;99.90
18339;DHT22;9295;44.484;11.240;2023-04-25T11:54:27;17.10;99.90
18339;DHT22;9295;44.484;11.240;2023-04-25T11:56:56;16.90;99.90
18339;DHT22;9295;44.484;11.240;2023-04-25T11:59:25;17.10;99.90
18339;DHT22;9295;44.484;11.240;2023-04-25T12:01:56;17.40;99.90
18339;DHT22;9295;44.484;11.240;2023-04-25T12:04:25;17.60;99.90
18339;DHT22;9295;44.484;11.240;2023-04-25T12:06:54;17.90;99.90
18339;DHT22;9295;44.484;11.240;2023-04-25T12:09:28;18.00;99.90
18339;DHT22;9295;44.484;11.240;2023-04-25T12:11:59;18.00;99.90
18339;DHT22;9295;44.484;11.240;2023-04-25T12:14:32;18.00;99.90
18339;DHT22;9295;44.484;11.240;2023-04-25T12:17:03;17.90;99.90
18339;DHT22;9295;44.484;11.240;2023-04-25T12:19:36;17.50;99.90
18339;DHT22;9295;44.484;11.240;2023-04-25T12:22:19;17.60;99.90
18339;DHT22;9295;44.484;11.240;2023-04-25T12:24:48;17.60;99.90
18339;DHT22;9295;44.484;11.240;2023-04-25T12:27:17;17.60;99.90
18339;DHT22;9295;44.484;11.240;2023-04-25T12:29:54;17.80;99.90
18339;DHT22;9295;44.484;11.240;2023-04-25T12:32:24;17.90;99.90
18339;DHT22;9295;44.484;11.240;2023-04-25T12:34:52;18.00;99.90
18339;DHT22;9295;44.484;11.240;2023-04-25T12:37:21;17.90;99.90
18339;DHT22;9295;44.484;11.240;2023-04-25T12:39:49;17.70;99.90
18339;DHT22;9295;44.484;11.240;2023-04-25T12:42:18;17.90;99.90
18339;DHT22;9295;44.484;11.240;2023-04-25T12:44:46;17.70;99.90
18339;DHT22;9295;44.484;11.240;2023-04-25T12:47:15;17.40;99.90
18339;DHT22;9295;44.484;11.240;2023-04-25T12:49:44;17.20;99.90
18339;DHT22;9295;44.484;11.240;2023-04-25T12:52:13;17.10;99.90
18339;DHT22;9295;44.484;11.240;2023-04-25T12:54:41;17.30;99.90
18339;DHT22;9295;44.484;11.240;2023-04-25T12:57:10;17.50;99.90
18339;DHT22;9295;44.484;11.240;2023-04-25T12:59:38;17.10;99.90
18339;DHT22;9295;44.484;11.240;2023-04-25T13:02:06;17.00;99.90
18339;DHT22;9295;44.484;11.240;2023-04-25T13:04:35;17.00;99.90
18339;DHT22;9295;44.484;11.240;2023-04-25T13:07:05;16.60;99.90
18339;DHT22;9295;44.484;11.240;2023-04-25T13:09:33;16.50;99.90
18339;DHT22;9295;44.484;11.240;2023-04-25T13:12:02;16.60;99.90
18339;DHT22;9295;44.484;11.240;2023-04-25T13:14:31;17.10;99.90
18339;DHT22;9295;44.484;11.240;2023-04-25T13:16:59;17.20;99.90
18339;DHT22;9295;44.484;11.240;2023-04-25T13:19:28;17.50;99.90
18339;DHT22;9295;44.484;11.240;2023-04-25T13:21:56;17.60;99.90
18339;DHT22;9295;44.484;11.240;2023-04-25T13:24:27;17.60;99.90
18339;DHT22;9295;44.484;11.240;2023-04-25T13:26:55;17.70;99.90
18339;DHT22;9295;44.484;11.240;2023-04-25T13:29:23;17.90;99.90
18339;DHT22;9295;44.484;11.240;2023-04-25T13:31:52;18.00;99.90
18339;DHT22;9295;44.484;11.240;2023-04-25T13:34:20;18.10;99.90
18339;DHT22;9295;44.484;11.240;2023-04-25T13:36:49;18.20;99.90
18339;DHT22;9295;44.484;11.240;2023-04-25T13:39:17;18.20;99.90
18339;DHT22;9295;44.484;11.240;2023-04-25T13:41:47;18.30;99.90
18339;DHT22;9295;44.484;11.240;2023-04-25T13:44:15;18.30;99.90
18339;DHT22;9295;44.484;11.240;2023-04-25T13:46:44;18.10;99.90
18339;DHT22;9295;44.484;11.240;2023-04-25T13:49:14;17.90;99.90
18339;DHT22;9295;44.484;11.240;2023-04-25T13:51:42;17.90;99.90
18339;DHT22;9295;44.484;11.240;2023-04-25T13:54:11;18.10;99.90
18339;DHT22;9295;44.484;11.240;2023-04-25T13:56:39;18.30;99.90
18339;DHT22;9295;44.484;11.240;2023-04-25T13:59:10;18.70;99.90
18339;DHT22;9295;44.484;11.240;2023-04-25T14:01:39;18.70;99.90
18339;DHT22;9295;44.484;11.240;2023-04-25T14:04:07;18.50;99.90
18339;DHT22;9295;44.484;11.240;2023-04-25T14:06:36;18.10;99.90
18339;DHT22;9295;44.484;11.240;2023-04-25T14:09:04;17.60;99.90
18339;DHT22;9295;44.484;11.240;2023-04-25T14:11:34;17.50;99.90
18339;DHT22;9295;44.484;11.240;2023-04-25T14:14:02;17.50;99.90
18339;DHT22;9295;44.484;11.240;2023-04-25T14:16:32;17.50;99.90
18339;DHT22;9295;44.484;11.240;2023-04-25T14:19:00;17.60;99.90
18339;DHT22;9295;44.484;11.240;2023-04-25T14:21:29;17.40;99.90
18339;DHT22;9295;44.484;11.240;2023-04-25T14:23:59;17.30;99.90
18339;DHT22;9295;44.484;11.240;2023-04-25T14:26:28;17.30;99.90
18339;DHT22;9295;44.484;11.240;2023-04-25T14:28:57;17.40;99.90
18339;DHT22;9295;44.484;11.240;2023-04-25T14:31:25;17.30;99.90
18339;DHT22;9295;44.484;11.240;2023-04-25T14:33:55;17.20;99.90
18339;DHT22;9295;44.484;11.240;2023-04-25T14:36:25;17.00;99.90
18339;DHT22;9295;44.484;11.240;2023-04-25T14:38:54;17.30;99.90
18339;DHT22;9295;44.484;11.240;2023-04-25T14:41:23;17.30;99.90
18339;DHT22;9295;44.484;11.240;2023-04-25T14:43:52;17.30;99.90
18339;DHT22;9295;44.484;11.240;2023-04-25T14:46:21;17.20;99.90
18339;DHT22;9295;44.484;11.240;2023-04-25T14:48:50;16.80;99.90
18339;DHT22;9295;44.484;11.240;2023-04-25T14:51:20;16.80;99.90
18339;DHT22;9295;44.484;11.240;2023-04-25T14:53:48;16.90;99.90
18339;DHT22;9295;44.484;11.240;2023-04-25T14:56:17;16.70;99.90
18339;DHT22;9295;44.484;11.240;2023-04-25T14:58:46;16.50;99.90
18339;DHT22;9295;44.484;11.240;2023-04-25T15:01:14;16.50;99.90
18339;DHT22;9295;44.484;11.240;2023-04-25T15:03:43;16.30;99.90
18339;DHT22;9295;44.484;11.240;2023-04-25T15:06:11;16.40;99.90
18339;DHT22;9295;44.484;11.240;2023-04-25T15:08:41;16.60;99.90
18339;DHT22;9295;44.484;11.240;2023-04-25T15:11:10;16.70;99.90
18339;DHT22;9295;44.484;11.240;2023-04-25T15:13:39;16.60;99.90
18339;DHT22;9295;44.484;11.240;2023-04-25T15:16:07;16.50;99.90
18339;DHT22;9295;44.484;11.240;2023-04-25T15:18:36;16.30;99.90
18339;DHT22;9295;44.484;11.240;2023-04-25T15:21:04;16.50;99.90
18339;DHT22;9295;44.484;11.240;2023-04-25T15:23:33;16.50;99.90
18339;DHT22;9295;44.484;11.240;2023-04-25T15:26:03;16.60;99.90
18339;DHT22;9295;44.484;11.240;2023-04-25T15:28:31;16.60;99.90
18339;DHT22;9295;44.484;11.240;2023-04-25T15:31:00;16.50;99.90
18339;DHT22;9295;44.484;11.240;2023-04-25T15:33:29;16.60;99.90
18339;DHT22;9295;44.484;11.240;2023-04-25T15:35:58;16.40;99.90
18339;DHT22;9295;44.484;11.240;2023-04-25T15:38:26;16.30;99.90
18339;DHT22;9295;44.484;11.240;2023-04-25T15:40:55;16.30;99.90
18339;DHT22;9295;44.484;11.240;2023-04-25T15:43:24;16.20;99.90
18339;DHT22;9295;44.484;11.240;2023-04-25T15:45:53;16.20;99.90
18339;DHT22;9295;44.484;11.240;2023-04-25T15:48:21;16.20;99.90
18339;DHT22;9295;44.484;11.240;2023-04-25T15:50:50;16.30;99.90
18339;DHT22;9295;44.484;11.240;2023-04-25T15:53:18;16.30;99.90
18339;DHT22;9295;44.484;11.240;2023-04-25T15:55:47;16.30;99.90
18339;DHT22;9295;44.484;11.240;2023-04-25T15:58:15;16.40;99.90
18339;DHT22;9295;44.484;11.240;2023-04-25T16:00:45;16.50;99.90